createdAt,value
2022-07-25T00:00:00.634Z,16.71
2022-07-25T00:02:28.044Z,16.57
2022-07-25T00:04:54.922Z,16.73
2022-07-25T00:07:21.761Z,16.46
2022-07-25T00:09:48.631Z,16.56
2022-07-25T00:12:15.435Z,16.67
2022-07-25T00:14:42.352Z,16.63
2022-07-25T00:17:09.112Z,16.63
2022-07-25T00:19:35.922Z,16.68
2022-07-25T00:22:02.743Z,16.53
2022-07-25T00:24:29.816Z,16.60
2022-07-25T00:26:56.661Z,16.58
2022-07-25T00:29:24.272Z,16.35
2022-07-25T00:31:51.119Z,16.36
2022-07-25T00:34:17.986Z,16.26
2022-07-25T00:36:44.853Z,16.21
2022-07-25T00:39:11.681Z,16.15
2022-07-25T00:41:38.491Z,16.36
2022-07-25T00:44:06.198Z,16.30
2022-07-25T00:46:33.429Z,16.15
2022-07-25T00:49:01.216Z,16.30
2022-07-25T00:51:28.146Z,16.24
2022-07-25T00:53:57.536Z,16.17
2022-07-25T00:56:25.218Z,16.20
2022-07-25T00:58:52.100Z,16.19
2022-07-25T01:01:18.948Z,16.32
2022-07-25T01:03:45.853Z,16.27
2022-07-25T01:06:12.749Z,16.12
2022-07-25T01:08:40.042Z,16.10
2022-07-25T01:11:07.344Z,16.11
2022-07-25T01:13:34.786Z,16.19
2022-07-25T01:16:01.638Z,16.06
2022-07-25T01:18:28.531Z,16.01
2022-07-25T01:20:55.365Z,16.01
2022-07-25T01:23:22.256Z,15.95
2022-07-25T01:25:49.121Z,16.13
2022-07-25T01:28:15.907Z,16.04
2022-07-25T01:30:42.775Z,15.88
2022-07-25T01:33:09.653Z,15.98
2022-07-25T01:35:41.527Z,15.89
2022-07-25T01:38:10.262Z,15.89
2022-07-25T01:40:37.077Z,15.88
2022-07-25T01:43:04.431Z,15.86
2022-07-25T01:45:31.650Z,15.94
2022-07-25T01:47:58.494Z,15.91
2022-07-25T01:50:25.525Z,15.85
2022-07-25T01:52:52.493Z,15.88
2022-07-25T01:55:19.335Z,15.83
2022-07-25T01:57:49.438Z,15.83
2022-07-25T02:00:17.801Z,15.83
2022-07-25T02:02:45.438Z,15.81
2022-07-25T02:05:13.824Z,15.91
2022-07-25T02:07:40.631Z,15.97
2022-07-25T02:10:08.402Z,15.79
2022-07-25T02:12:35.332Z,15.71
2022-07-25T02:15:02.127Z,15.65
2022-07-25T02:17:29.070Z,15.49
2022-07-25T02:19:55.843Z,15.62
2022-07-25T02:22:22.583Z,15.64
2022-07-25T02:24:50.512Z,15.68
2022-07-25T02:27:17.525Z,15.61
2022-07-25T02:29:44.326Z,15.73
2022-07-25T02:32:11.031Z,15.66
2022-07-25T02:34:37.787Z,15.66
2022-07-25T02:37:04.660Z,15.55
2022-07-25T02:39:31.377Z,15.50
2022-07-25T02:41:58.171Z,15.47
2022-07-25T02:44:25.072Z,15.48
2022-07-25T02:46:51.774Z,15.51
2022-07-25T02:49:18.696Z,15.44
2022-07-25T02:51:45.530Z,15.46
2022-07-25T02:54:12.741Z,15.46
2022-07-25T02:56:39.708Z,15.45
2022-07-25T02:59:07.076Z,15.41
2022-07-25T03:01:33.920Z,15.45
2022-07-25T03:04:00.848Z,15.55
2022-07-25T03:06:27.789Z,15.45
2022-07-25T03:08:54.601Z,15.46
2022-07-25T03:11:21.383Z,15.28
2022-07-25T03:13:48.140Z,15.38
2022-07-25T03:16:15.595Z,15.28
2022-07-25T03:18:42.354Z,15.31
2022-07-25T03:21:09.258Z,15.21
2022-07-25T03:23:36.187Z,15.21
2022-07-25T03:26:02.987Z,15.20
2022-07-25T03:28:29.752Z,15.22
2022-07-25T03:30:56.543Z,15.16
2022-07-25T03:33:23.278Z,15.24
2022-07-25T03:35:50.042Z,15.26
2022-07-25T03:38:16.820Z,15.44
2022-07-25T03:40:43.569Z,15.36
2022-07-25T03:43:10.492Z,15.22
2022-07-25T03:45:37.361Z,15.18
2022-07-25T03:48:04.501Z,15.23
2022-07-25T03:50:31.300Z,15.27
2022-07-25T03:52:58.074Z,15.30
2022-07-25T03:55:24.931Z,15.26
2022-07-25T03:57:51.778Z,15.30
2022-07-25T04:00:18.620Z,15.19
2022-07-25T04:02:45.550Z,15.30
2022-07-25T04:05:12.363Z,15.43
2022-07-25T04:07:39.232Z,15.40
2022-07-25T04:10:08.291Z,15.53
2022-07-25T04:12:35.839Z,15.50
2022-07-25T04:15:02.771Z,15.57
2022-07-25T04:17:29.542Z,15.53
2022-07-25T04:19:57.414Z,15.62
2022-07-25T04:22:24.235Z,15.60
2022-07-25T04:24:50.941Z,15.58
2022-07-25T04:27:17.844Z,15.51
2022-07-25T04:29:44.665Z,15.53
2022-07-25T04:32:11.639Z,15.57
2022-07-25T04:34:38.516Z,15.58
2022-07-25T04:37:05.291Z,15.63
2022-07-25T04:39:32.064Z,15.54
2022-07-25T04:41:59.159Z,15.73
2022-07-25T04:44:25.912Z,15.71
2022-07-25T04:46:52.630Z,15.90
2022-07-25T04:49:19.540Z,15.97
2022-07-25T04:51:46.436Z,16.05
2022-07-25T04:54:13.242Z,15.89
2022-07-25T04:56:40.156Z,16.05
2022-07-25T04:59:07.299Z,16.08
2022-07-25T05:01:35.163Z,16.28
2022-07-25T05:04:02.232Z,16.39
2022-07-25T05:06:29.195Z,16.45
2022-07-25T05:08:56.172Z,16.70
2022-07-25T05:11:22.881Z,16.84
2022-07-25T05:13:49.670Z,16.91
2022-07-25T05:16:16.667Z,16.92
2022-07-25T05:18:43.560Z,17.12
2022-07-25T05:21:12.233Z,17.34
2022-07-25T05:23:42.062Z,17.65
2022-07-25T05:26:08.702Z,17.88
2022-07-25T05:28:35.801Z,18.00
2022-07-25T05:31:02.575Z,18.13
2022-07-25T05:33:29.601Z,18.42
2022-07-25T05:35:56.443Z,18.54
2022-07-25T05:38:23.289Z,18.70
2022-07-25T05:40:52.456Z,18.96
2022-07-25T05:43:19.873Z,19.22
2022-07-25T05:45:47.600Z,19.45
2022-07-25T05:48:16.085Z,19.73
2022-07-25T05:50:43.059Z,19.92
2022-07-25T05:53:09.805Z,20.34
2022-07-25T05:55:40.261Z,20.56
2022-07-25T05:58:09.597Z,20.80
2022-07-25T06:00:37.465Z,21.04
2022-07-25T06:03:04.591Z,21.33
2022-07-25T06:05:31.778Z,21.58
2022-07-25T06:07:58.587Z,21.85
2022-07-25T06:10:25.519Z,22.03
2022-07-25T06:12:52.421Z,22.27
2022-07-25T06:15:22.787Z,22.41
2022-07-25T06:17:53.632Z,22.78
2022-07-25T06:20:20.521Z,23.03
2022-07-25T06:22:47.294Z,23.09
2022-07-25T06:25:14.262Z,23.07
2022-07-25T06:27:41.634Z,23.12
2022-07-25T06:30:19.025Z,23.22
2022-07-25T06:32:47.352Z,23.11
2022-07-25T06:35:14.243Z,23.31
2022-07-25T06:37:41.065Z,23.80
2022-07-25T06:40:10.010Z,23.99
2022-07-25T06:42:45.439Z,24.13
2022-07-25T06:45:13.316Z,24.36
2022-07-25T06:47:41.852Z,24.55
2022-07-25T06:50:12.130Z,24.80
2022-07-25T06:52:40.063Z,25.09
2022-07-25T06:55:09.218Z,25.44
2022-07-25T06:57:37.154Z,25.49
2022-07-25T07:00:08.598Z,25.68
2022-07-25T07:02:59.825Z,26.02
2022-07-25T07:05:29.278Z,26.13
2022-07-25T07:07:56.182Z,26.42
2022-07-25T07:10:24.033Z,26.33
2022-07-25T07:12:51.643Z,26.66
2022-07-25T07:15:18.496Z,26.92
2022-07-25T07:17:45.231Z,27.20
2022-07-25T07:20:12.278Z,27.43
2022-07-25T07:22:48.025Z,27.30
2022-07-25T07:25:19.673Z,27.50
2022-07-25T07:27:47.804Z,27.74
2022-07-25T07:30:15.108Z,28.17
2022-07-25T07:32:43.163Z,27.64
2022-07-25T07:35:11.584Z,27.89
2022-07-25T07:37:43.220Z,27.91
2022-07-25T07:40:17.440Z,28.32
2022-07-25T07:42:47.922Z,28.62
2022-07-25T07:45:26.023Z,28.38
2022-07-25T07:47:54.507Z,28.46
2022-07-25T07:50:27.269Z,28.24
2022-07-25T07:52:55.809Z,28.52
2022-07-25T07:55:41.673Z,28.62
2022-07-25T07:58:08.554Z,28.48
2022-07-25T08:00:45.176Z,28.38
2022-07-25T08:03:12.210Z,28.86
2022-07-25T08:05:40.886Z,28.96
2022-07-25T08:08:09.874Z,28.99
2022-07-25T08:10:39.112Z,29.10
2022-07-25T08:13:23.502Z,29.12
2022-07-25T08:15:53.064Z,28.90
2022-07-25T08:18:21.714Z,29.23
2022-07-25T08:20:49.875Z,29.01
2022-07-25T08:23:17.638Z,29.15
2022-07-25T08:25:45.554Z,29.39
2022-07-25T08:30:39.832Z,29.77
2022-07-25T08:33:10.849Z,29.90
2022-07-25T08:35:37.964Z,29.90
2022-07-25T08:38:05.501Z,30.10
2022-07-25T08:40:35.413Z,29.94
2022-07-25T08:43:02.205Z,30.27
2022-07-25T08:45:29.420Z,30.03
2022-07-25T08:47:56.790Z,30.21
2022-07-25T08:50:29.102Z,30.35
2022-07-25T08:53:22.955Z,30.47
2022-07-25T08:55:46.904Z,30.53
2022-07-25T08:58:18.211Z,30.73
2022-07-25T09:00:45.631Z,30.82
2022-07-25T09:03:13.462Z,31.08
2022-07-25T09:05:40.752Z,30.81
2022-07-25T09:08:10.513Z,31.39
2022-07-25T09:10:39.367Z,31.78
2022-07-25T09:13:11.357Z,31.85
2022-07-25T09:15:40.096Z,31.78
2022-07-25T09:18:15.995Z,31.96
2022-07-25T09:20:47.785Z,31.72
2022-07-25T09:23:35.858Z,32.00
2022-07-25T09:26:14.361Z,31.84
2022-07-25T09:28:46.049Z,32.53
2022-07-25T09:31:14.199Z,32.23
2022-07-25T09:33:52.242Z,31.59
2022-07-25T09:36:19.094Z,32.16
2022-07-25T09:38:56.763Z,32.46
2022-07-25T09:41:34.411Z,32.54
2022-07-25T09:44:01.354Z,32.45
2022-07-25T09:46:32.211Z,32.62
2022-07-25T09:49:00.823Z,32.46
2022-07-25T09:51:29.493Z,32.39
2022-07-25T09:53:56.276Z,32.49
2022-07-25T09:56:23.080Z,32.93
2022-07-25T09:58:49.940Z,33.14
2022-07-25T10:01:25.563Z,33.18
2022-07-25T10:04:10.143Z,33.22
2022-07-25T10:06:56.340Z,33.69
2022-07-25T10:09:24.255Z,33.50
2022-07-25T10:12:11.567Z,33.56
2022-07-25T10:14:39.504Z,33.67
2022-07-25T10:17:07.444Z,33.97
2022-07-25T10:19:52.019Z,33.69
2022-07-25T10:22:39.876Z,34.28
2022-07-25T10:25:13.524Z,33.96
2022-07-25T10:27:50.731Z,33.68
2022-07-25T10:30:28.508Z,34.46
2022-07-25T10:33:11.838Z,34.20
2022-07-25T10:35:39.278Z,34.65
2022-07-25T10:38:06.806Z,34.90
2022-07-25T10:40:46.691Z,35.19
2022-07-25T10:43:13.402Z,35.55
2022-07-25T10:45:59.392Z,35.29
2022-07-25T10:48:26.181Z,34.79
2022-07-25T10:50:57.266Z,35.10
2022-07-25T10:53:39.152Z,35.07
2022-07-25T10:56:07.497Z,35.20
2022-07-25T10:58:56.713Z,35.47
2022-07-25T11:01:28.948Z,36.04
2022-07-25T11:04:04.546Z,35.92
2022-07-25T11:06:42.742Z,35.83
2022-07-25T11:09:26.657Z,35.75
2022-07-25T11:11:59.426Z,35.97
2022-07-25T11:14:31.497Z,35.76
2022-07-25T11:17:11.438Z,35.38
2022-07-25T11:19:38.518Z,35.75
2022-07-25T11:22:05.284Z,35.95
2022-07-25T11:24:44.624Z,36.46
2022-07-25T11:27:20.329Z,35.90
2022-07-25T11:29:47.415Z,36.45
2022-07-25T11:32:14.414Z,36.83
2022-07-25T11:34:48.531Z,36.78
2022-07-25T11:37:17.750Z,36.76
2022-07-25T11:39:46.320Z,36.48
2022-07-25T11:42:16.356Z,36.06
2022-07-25T11:44:47.964Z,36.08
2022-07-25T11:47:33.377Z,36.62
2022-07-25T11:50:04.169Z,37.06
2022-07-25T11:52:37.800Z,37.17
2022-07-25T11:55:10.120Z,37.25
2022-07-25T11:57:40.100Z,37.63
2022-07-25T12:00:25.032Z,37.73
2022-07-25T12:02:52.378Z,37.53
2022-07-25T12:05:22.307Z,37.30
2022-07-25T12:07:54.040Z,37.08
2022-07-25T12:10:32.469Z,37.28
2022-07-25T12:13:01.485Z,38.05
2022-07-25T12:15:41.305Z,38.31
2022-07-25T12:18:12.635Z,37.65
2022-07-25T12:20:43.244Z,37.49
2022-07-25T12:23:12.434Z,37.61
2022-07-25T12:25:44.124Z,38.07
2022-07-25T12:28:11.951Z,38.55
2022-07-25T12:30:40.211Z,38.38
2022-07-25T12:33:07.111Z,38.20
2022-07-25T12:35:34.302Z,37.79
2022-07-25T12:38:01.083Z,37.67
2022-07-25T12:40:28.108Z,37.83
2022-07-25T12:42:55.112Z,37.91
2022-07-25T12:45:23.251Z,37.80
2022-07-25T12:47:50.119Z,38.42
2022-07-25T12:50:21.125Z,38.36
2022-07-25T12:52:48.273Z,38.62
2022-07-25T12:55:17.816Z,38.74
2022-07-25T12:57:45.316Z,38.23
2022-07-25T13:00:15.361Z,38.69
2022-07-25T13:02:42.301Z,39.21
2022-07-25T13:05:10.475Z,39.73
2022-07-25T13:07:37.612Z,39.36
2022-07-25T13:10:06.860Z,38.84
2022-07-25T13:12:33.878Z,38.79
2022-07-25T13:15:00.699Z,38.17
2022-07-25T13:17:28.153Z,38.15
2022-07-25T13:19:56.132Z,38.64
2022-07-25T13:22:23.785Z,38.36
2022-07-25T13:24:51.021Z,37.65
2022-07-25T13:27:22.213Z,37.33
2022-07-25T13:29:54.940Z,37.63
2022-07-25T13:32:23.363Z,37.96
2022-07-25T13:34:51.473Z,38.50
2022-07-25T13:37:19.330Z,38.84
2022-07-25T13:39:46.174Z,38.57
2022-07-25T13:42:13.014Z,38.79
2022-07-25T13:44:39.742Z,38.43
2022-07-25T13:47:06.663Z,38.20
2022-07-25T13:49:33.556Z,38.43
2022-07-25T13:52:00.577Z,38.92
2022-07-25T13:54:27.438Z,38.73
2022-07-25T13:56:54.361Z,38.45
2022-07-25T13:59:21.993Z,38.62
2022-07-25T14:01:50.636Z,38.15
2022-07-25T14:04:20.794Z,37.73
2022-07-25T14:06:53.877Z,37.07
2022-07-25T14:09:21.641Z,36.95
2022-07-25T14:11:49.101Z,37.25
2022-07-25T14:14:16.063Z,37.37
2022-07-25T14:16:43.115Z,37.67
2022-07-25T14:19:10.438Z,38.13
2022-07-25T14:21:40.920Z,38.03
2022-07-25T14:24:08.200Z,38.04
2022-07-25T14:26:35.455Z,38.46
2022-07-25T14:29:02.745Z,38.27
2022-07-25T14:31:30.236Z,37.88
2022-07-25T14:33:57.150Z,37.38
2022-07-25T14:36:24.140Z,38.24
2022-07-25T14:38:51.116Z,38.10
2022-07-25T14:41:19.682Z,37.52
2022-07-25T14:43:46.538Z,37.74
2022-07-25T14:46:13.512Z,37.55
2022-07-25T14:48:40.462Z,38.19
2022-07-25T14:51:08.116Z,37.85
2022-07-25T14:53:35.635Z,38.01
2022-07-25T14:56:09.632Z,37.86
2022-07-25T14:58:38.356Z,38.10
2022-07-25T15:01:06.322Z,37.83
2022-07-25T15:03:33.350Z,37.98
2022-07-25T15:06:00.692Z,38.09
2022-07-25T15:08:29.249Z,37.93
2022-07-25T15:10:56.644Z,38.13
2022-07-25T15:13:32.185Z,37.75
2022-07-25T15:16:00.772Z,37.85
2022-07-25T15:18:28.296Z,38.20
2022-07-25T15:20:55.745Z,38.23
2022-07-25T15:23:25.491Z,38.28
2022-07-25T15:26:03.516Z,38.46
2022-07-25T15:28:36.209Z,38.48
2022-07-25T15:31:03.777Z,38.46
2022-07-25T15:33:30.880Z,38.48
2022-07-25T15:35:58.700Z,38.15
2022-07-25T15:38:25.850Z,38.06
2022-07-25T15:40:52.920Z,37.47
2022-07-25T15:43:19.969Z,37.14
2022-07-25T15:45:47.455Z,37.42
2022-07-25T15:48:14.704Z,37.20
2022-07-25T15:50:45.635Z,36.61
2022-07-25T15:53:18.177Z,36.74
2022-07-25T15:55:45.066Z,37.43
2022-07-25T15:58:12.551Z,37.10
2022-07-25T16:00:40.307Z,36.92
2022-07-25T16:03:08.157Z,36.57
2022-07-25T16:05:36.122Z,36.71
2022-07-25T16:08:03.247Z,36.46
2022-07-25T16:10:32.091Z,36.05
2022-07-25T16:12:59.954Z,36.28
2022-07-25T16:15:27.430Z,36.18
2022-07-25T16:18:01.872Z,36.30
2022-07-25T16:20:31.762Z,35.90
2022-07-25T16:22:59.669Z,35.78
2022-07-25T16:25:29.841Z,35.61
2022-07-25T16:27:57.671Z,35.34
2022-07-25T16:30:25.316Z,35.66
2022-07-25T16:32:52.344Z,35.71
2022-07-25T16:35:19.998Z,35.79
2022-07-25T16:37:46.933Z,35.42
2022-07-25T16:42:38.874Z,35.10
2022-07-25T16:45:06.391Z,35.30
2022-07-25T16:47:33.319Z,35.28
2022-07-25T16:50:00.500Z,35.39
2022-07-25T16:52:27.413Z,35.25
2022-07-25T16:54:54.374Z,34.84
2022-07-25T16:57:24.881Z,34.61
2022-07-25T17:02:19.181Z,34.66
2022-07-25T17:04:46.121Z,34.61
2022-07-25T17:07:13.091Z,34.26
2022-07-25T17:09:41.071Z,34.00
2022-07-25T17:12:08.136Z,34.23
2022-07-25T17:14:35.073Z,33.94
2022-07-25T17:17:02.164Z,33.30
2022-07-25T17:19:29.107Z,33.45
2022-07-25T17:21:55.981Z,33.31
2022-07-25T17:24:22.859Z,33.46
2022-07-25T17:26:49.759Z,32.55
2022-07-25T17:29:16.782Z,32.46
2022-07-25T17:34:08.931Z,32.15
2022-07-25T17:36:36.071Z,32.13
2022-07-25T17:39:03.039Z,32.02
2022-07-25T17:41:30.042Z,32.00
2022-07-25T17:43:56.965Z,31.76
2022-07-25T17:46:23.928Z,31.52
2022-07-25T17:48:50.946Z,31.39
2022-07-25T17:51:18.034Z,31.07
2022-07-25T17:53:44.986Z,30.97
2022-07-25T17:56:11.916Z,30.81
2022-07-25T17:58:38.913Z,30.57
2022-07-25T18:01:10.130Z,30.24
2022-07-25T18:03:38.010Z,29.96
2022-07-25T18:06:05.573Z,29.85
2022-07-25T18:10:59.036Z,29.07
2022-07-25T18:13:25.993Z,29.28
2022-07-25T18:15:53.776Z,28.88
2022-07-25T18:18:21.214Z,28.52
2022-07-25T18:20:48.237Z,28.40
2022-07-25T18:23:15.120Z,28.40
2022-07-25T18:25:44.766Z,28.16
2022-07-25T18:28:12.732Z,28.20
2022-07-25T18:30:39.844Z,27.97
2022-07-25T18:33:12.478Z,27.78
2022-07-25T18:39:10.712Z,27.43
2022-07-25T18:41:37.675Z,27.29
2022-07-25T18:44:05.057Z,27.40
2022-07-25T18:46:33.794Z,27.32
2022-07-25T18:49:01.921Z,27.09
2022-07-25T18:51:28.785Z,26.74
2022-07-25T18:53:55.684Z,26.55
2022-07-25T18:56:22.594Z,26.55
2022-07-25T18:58:49.912Z,26.54
2022-07-25T19:01:17.127Z,26.26
2022-07-25T19:03:44.160Z,26.20
2022-07-25T19:06:11.453Z,26.26
2022-07-25T19:08:38.775Z,26.10
2022-07-25T19:11:06.421Z,26.03
2022-07-25T19:13:51.160Z,26.25
2022-07-25T19:16:18.871Z,25.92
2022-07-25T19:18:45.900Z,25.51
2022-07-25T19:21:12.721Z,25.44
2022-07-25T19:23:39.813Z,25.37
2022-07-25T19:26:06.884Z,25.34
2022-07-25T19:28:35.864Z,25.17
2022-07-25T19:31:03.130Z,25.24
2022-07-25T19:33:35.657Z,25.45
2022-07-25T19:36:04.445Z,25.32
2022-07-25T19:38:31.930Z,25.23
2022-07-25T19:40:59.227Z,24.74
2022-07-25T19:43:26.171Z,24.60
2022-07-25T19:45:53.251Z,24.60
2022-07-25T19:48:24.046Z,24.52
2022-07-25T19:50:52.088Z,24.58
2022-07-25T19:53:19.121Z,24.32
2022-07-25T19:55:46.613Z,24.21
2022-07-25T19:58:13.636Z,24.13
2022-07-25T20:00:40.677Z,24.22
2022-07-25T20:03:07.769Z,24.28
2022-07-25T20:05:34.581Z,24.17
2022-07-25T20:08:01.461Z,23.90
2022-07-25T20:10:28.345Z,23.78
2022-07-25T20:12:59.561Z,23.84
2022-07-25T20:15:28.322Z,23.75
2022-07-25T20:17:57.083Z,23.73
2022-07-25T20:20:24.393Z,23.77
2022-07-25T20:22:52.187Z,23.66
2022-07-25T20:25:19.056Z,23.60
2022-07-25T20:27:45.941Z,23.57
2022-07-25T20:30:13.564Z,23.65
2022-07-25T20:32:40.910Z,23.60
2022-07-25T20:35:08.462Z,23.52
2022-07-25T20:37:35.702Z,23.36
2022-07-25T20:40:03.018Z,23.26
2022-07-25T20:42:29.754Z,23.30
2022-07-25T20:44:56.922Z,23.36
2022-07-25T20:47:23.868Z,23.29
2022-07-25T20:49:50.932Z,23.35
2022-07-25T20:52:17.825Z,23.33
2022-07-25T20:54:44.842Z,23.31
2022-07-25T20:57:11.836Z,23.16
2022-07-25T20:59:38.653Z,23.19
2022-07-25T21:02:05.815Z,23.08
2022-07-25T21:04:32.639Z,23.07
2022-07-25T21:06:59.401Z,23.13
2022-07-25T21:09:29.626Z,23.13
2022-07-25T21:11:59.662Z,23.10
2022-07-25T21:14:27.027Z,23.14
2022-07-25T21:16:54.207Z,23.28
2022-07-25T21:19:21.105Z,23.10
2022-07-25T21:21:48.670Z,22.92
2022-07-25T21:24:15.532Z,22.85
2022-07-25T21:26:42.404Z,22.76
2022-07-25T21:29:09.817Z,22.78
2022-07-25T21:31:37.929Z,22.90
2022-07-25T21:34:05.147Z,22.96
2022-07-25T21:36:32.043Z,22.74
2022-07-25T21:38:58.763Z,22.60
2022-07-25T21:41:25.551Z,22.63
2022-07-25T21:43:52.433Z,22.73
2022-07-25T21:46:19.334Z,22.59
2022-07-25T21:49:05.325Z,22.59
2022-07-25T21:51:40.341Z,22.71
2022-07-25T21:54:07.985Z,22.61
2022-07-25T21:56:34.752Z,22.33
2022-07-25T21:59:01.808Z,22.26
2022-07-25T22:01:28.743Z,22.45
2022-07-25T22:03:55.595Z,22.44
2022-07-25T22:06:22.478Z,22.36
2022-07-25T22:08:49.340Z,22.49
2022-07-25T22:11:42.892Z,22.33
2022-07-25T22:14:02.931Z,22.25
2022-07-25T22:16:29.806Z,22.13
2022-07-25T22:18:57.374Z,22.10
2022-07-25T22:21:24.425Z,22.19
2022-07-25T22:23:51.425Z,22.22
2022-07-25T22:26:20.276Z,22.29
2022-07-25T22:28:48.462Z,22.47
2022-07-25T22:31:15.659Z,22.40
2022-07-25T22:33:42.537Z,22.27
2022-07-25T22:36:09.681Z,22.30
2022-07-25T22:38:36.852Z,22.29
2022-07-25T22:41:03.693Z,22.14
2022-07-25T22:43:56.776Z,21.96
2022-07-25T22:46:17.382Z,22.07
2022-07-25T22:48:44.220Z,21.99
2022-07-25T22:51:12.049Z,21.84
2022-07-25T22:53:38.854Z,21.87
2022-07-25T22:56:06.033Z,22.00
2022-07-25T22:58:32.826Z,22.10
2022-07-25T23:03:36.277Z,21.92
2022-07-25T23:06:03.078Z,22.07
2022-07-25T23:08:30.104Z,22.07
2022-07-25T23:10:56.920Z,21.92
2022-07-25T23:13:24.153Z,21.82
2022-07-25T23:15:51.210Z,21.69
2022-07-25T23:18:18.940Z,21.72
2022-07-25T23:20:46.166Z,21.64
2022-07-25T23:23:13.812Z,21.63
2022-07-25T23:25:40.686Z,21.82
2022-07-25T23:28:07.494Z,21.78
2022-07-25T23:30:39.753Z,21.64
2022-07-25T23:33:08.164Z,21.59
2022-07-25T23:35:35.326Z,21.85
2022-07-25T23:38:02.347Z,21.71
2022-07-25T23:40:29.175Z,21.58
2022-07-25T23:42:56.066Z,21.65
2022-07-25T23:45:28.106Z,21.52
2022-07-25T23:47:56.677Z,21.41
2022-07-25T23:50:24.345Z,21.74
2022-07-25T23:52:51.640Z,21.65
2022-07-25T23:55:18.680Z,21.83
2022-07-25T23:57:45.562Z,22.11
